Time;durP1;ratioP1;P1;durP2;ratioP2;P2;SDS_P1;SDS_P2;PMS_P1;PMS_P2;Temp;Humidity;BMP_temperature;BMP_pressure;BME280_temperature;BME280_humidity;BME280_pressure;Samples;Min_cycle;Max_cycle;Signal;HPM_P1;HPM_P2
2022/07/15 00:01:42;;;;;;;0.10;0.10;;;;;;;12.92;100.00;101837.78;10441839;28;20025;-74
2022/07/15 00:06:43;;;;;;;0.10;0.10;;;;;;;12.84;100.00;101840.34;10433473;28;20404;-74
2022/07/15 00:11:43;;;;;;;0.00;0.00;;;;;;;12.73;100.00;101837.88;10442748;28;20345;-74
2022/07/15 00:16:43;;;;;;;0.10;0.10;;;;;;;12.63;100.00;101833.41;10431989;28;20040;-74
2022/07/15 00:21:43;;;;;;;0.10;0.10;;;;;;;12.58;100.00;101838.38;10436274;28;20029;-74
2022/07/15 00:26:44;;;;;;;0.10;0.10;;;;;;;12.54;100.00;101831.63;10430411;28;20476;-74
2022/07/15 00:31:44;;;;;;;0.10;0.10;;;;;;;12.45;100.00;101832.53;10424877;28;20013;-74
2022/07/15 00:36:44;;;;;;;0.10;0.10;;;;;;;12.43;100.00;101834.50;10432644;28;20032;-74
2022/07/15 00:41:45;;;;;;;0.10;0.10;;;;;;;12.50;100.00;101840.09;10424776;28;20013;-74
2022/07/15 00:46:45;;;;;;;0.00;0.00;;;;;;;12.61;100.00;101838.06;10406049;28;20022;-74
2022/07/15 00:51:49;;;;;;;0.10;0.10;;;;;;;12.77;100.00;101842.78;10439027;28;20021;-74
2022/07/15 00:56:56;;;;;;;0.10;0.10;;;;;;;12.91;100.00;101842.28;10434848;28;20030;-73
2022/07/15 01:01:56;;;;;;;0.10;0.10;;;;;;;13.01;100.00;101836.88;10424166;28;20057;-74
2022/07/15 01:06:57;;;;;;;0.10;0.10;;;;;;;13.03;100.00;101834.91;10440043;28;20152;-74
2022/07/15 01:11:58;;;;;;;0.10;0.10;;;;;;;13.03;100.00;101837.56;10416088;28;20033;-73
2022/07/15 01:16:58;;;;;;;0.10;0.10;;;;;;;13.02;100.00;101822.50;10443489;28;20423;-74
2022/07/15 01:21:59;;;;;;;0.10;0.10;;;;;;;12.94;100.00;101813.53;10428595;28;20243;-74
2022/07/15 01:27:00;;;;;;;0.10;0.10;;;;;;;12.87;100.00;101824.00;10431221;28;20458;-74
2022/07/15 01:32:01;;;;;;;0.10;0.10;;;;;;;12.91;100.00;101833.41;10434773;28;20053;-74
2022/07/15 01:37:01;;;;;;;0.10;0.10;;;;;;;12.94;100.00;101835.78;10433492;28;20484;-74
2022/07/15 01:42:01;;;;;;;0.10;0.10;;;;;;;12.96;100.00;101844.50;10436453;28;20107;-74
2022/07/15 01:47:02;;;;;;;0.10;0.10;;;;;;;13.01;100.00;101850.25;10428709;28;20480;-73
2022/07/15 01:52:03;;;;;;;0.10;0.10;;;;;;;13.02;100.00;101859.94;10436331;28;20036;-74
2022/07/15 01:57:04;;;;;;;0.00;0.00;;;;;;;13.00;100.00;101869.97;10427456;28;20495;-74
2022/07/15 02:02:04;;;;;;;0.10;0.10;;;;;;;12.90;100.00;101866.50;10429336;28;20049;-74
2022/07/15 02:07:05;;;;;;;0.10;0.10;;;;;;;12.79;100.00;101851.47;10407718;28;20021;-74
2022/07/15 02:12:06;;;;;;;0.10;0.10;;;;;;;12.74;100.00;101848.44;10411338;28;20538;-73
2022/07/15 02:17:09;;;;;;;0.10;0.10;;;;;;;12.74;100.00;101839.53;10406475;28;20018;-72
2022/07/15 02:22:10;;;;;;;0.10;0.10;;;;;;;12.75;100.00;101831.38;10408448;28;20040;-73
2022/07/15 02:27:10;;;;;;;0.10;0.10;;;;;;;12.74;100.00;101835.06;10423837;28;20271;-72
2022/07/15 02:32:10;;;;;;;0.10;0.10;;;;;;;12.75;100.00;101836.75;10418316;28;20385;-72
2022/07/15 02:37:10;;;;;;;0.00;0.00;;;;;;;12.76;100.00;101837.56;10423254;28;20463;-73
2022/07/15 02:42:11;;;;;;;0.10;0.10;;;;;;;12.74;100.00;101842.22;10442599;28;20029;-73
2022/07/15 02:47:11;;;;;;;0.10;0.10;;;;;;;12.72;100.00;101842.38;10423833;28;20029;-73
2022/07/15 02:52:12;;;;;;;0.10;0.10;;;;;;;12.73;100.00;101843.22;10414641;28;20021;-73
2022/07/15 02:57:13;;;;;;;0.05;0.05;;;;;;;12.75;100.00;101844.75;10419601;28;20028;-74
2022/07/15 03:02:13;;;;;;;0.10;0.10;;;;;;;12.81;100.00;101851.34;10426639;28;20017;-73
2022/07/15 03:07:13;;;;;;;0.10;0.10;;;;;;;12.82;100.00;101840.50;10455101;28;20013;-73
2022/07/15 03:12:14;;;;;;;0.10;0.10;;;;;;;12.86;100.00;101859.78;10455007;28;20025;-73
2022/07/15 03:17:14;;;;;;;0.10;0.10;;;;;;;12.89;100.00;101865.66;10419057;28;20472;-73
2022/07/15 03:22:15;;;;;;;0.00;0.00;;;;;;;12.92;100.00;101859.16;10413613;28;20021;-73
2022/07/15 03:27:16;;;;;;;0.10;0.10;;;;;;;12.95;100.00;101855.34;10413157;28;20037;-73
2022/07/15 03:32:19;;;;;;;0.10;0.10;;;;;;;12.98;100.00;101866.59;10443153;28;20105;-73
2022/07/15 03:37:19;;;;;;;0.00;0.00;;;;;;;13.02;100.00;101876.00;10444409;28;20020;-74
2022/07/15 03:42:19;;;;;;;0.10;0.10;;;;;;;13.04;100.00;101889.22;10446025;28;20021;-73
2022/07/15 03:47:20;;;;;;;0.10;0.10;;;;;;;13.09;100.00;101894.97;10425516;28;20408;-73
2022/07/15 03:52:21;;;;;;;0.10;0.10;;;;;;;13.12;100.00;101890.16;10412114;28;20041;-73
2022/07/15 03:57:24;;;;;;;0.10;0.10;;;;;;;13.15;100.00;101891.69;10409657;28;20024;-73
2022/07/15 04:02:24;;;;;;;0.10;0.10;;;;;;;13.16;100.00;101889.84;10408047;28;20346;-74
2022/07/15 04:07:25;;;;;;;0.10;0.10;;;;;;;13.20;100.00;101893.91;10418932;28;20070;-73
2022/07/15 04:12:25;;;;;;;0.10;0.10;;;;;;;13.30;100.00;101886.72;10424911;28;20559;-73
2022/07/15 04:17:26;;;;;;;0.10;0.10;;;;;;;13.38;100.00;101885.94;10434429;28;20287;-72
2022/07/15 04:22:26;;;;;;;0.10;0.10;;;;;;;13.44;100.00;101896.88;10410269;28;20271;-73
2022/07/15 04:27:27;;;;;;;0.10;0.10;;;;;;;13.46;100.00;101889.53;10421429;28;20100;-72
2022/07/15 04:32:28;;;;;;;0.10;0.10;;;;;;;13.50;100.00;101880.22;10421118;28;20291;-73
2022/07/15 04:37:28;;;;;;;0.10;0.10;;;;;;;13.61;100.00;101897.03;10430390;28;20036;-72
2022/07/15 04:42:29;;;;;;;0.10;0.10;;;;;;;13.70;100.00;101896.09;10430949;28;20017;-73
2022/07/15 04:47:29;;;;;;;0.10;0.10;;;;;;;13.73;100.00;101904.69;10425104;28;20048;-73
2022/07/15 04:52:30;;;;;;;0.10;0.10;;;;;;;13.71;100.00;101897.81;10415873;28;20850;-73
2022/07/15 04:57:30;;;;;;;0.10;0.10;;;;;;;13.72;100.00;101900.31;10431261;28;20415;-72
2022/07/15 05:02:31;;;;;;;0.10;0.10;;;;;;;13.74;100.00;101914.41;10426788;28;20013;-74
2022/07/15 05:07:31;;;;;;;0.00;0.00;;;;;;;13.74;100.00;101933.16;10429866;28;20017;-73
2022/07/15 05:12:32;;;;;;;0.10;0.10;;;;;;;13.72;100.00;101937.81;10406576;28;1035630;-74
2022/07/15 05:17:34;;;;;;;0.10;0.10;;;;;;;13.80;100.00;101947.75;10426462;28;20025;-73
2022/07/15 05:22:34;;;;;;;0.10;0.10;;;;;;;13.86;100.00;101943.63;10439204;28;20522;-74
2022/07/15 05:27:35;;;;;;;0.10;0.10;;;;;;;13.89;100.00;101941.47;10413142;28;20024;-73
2022/07/15 05:32:35;;;;;;;0.10;0.10;;;;;;;14.00;100.00;101946.59;10417438;28;20025;-74
2022/07/15 05:37:39;;;;;;;0.10;0.10;;;;;;;14.23;100.00;101946.97;10423444;28;20024;-74
2022/07/15 05:42:40;;;;;;;0.13;0.13;;;;;;;14.52;100.00;101956.59;10438638;28;20292;-74
2022/07/15 05:47:47;;;;;;;0.10;0.10;;;;;;;14.78;100.00;101959.25;10423888;28;20068;-74
2022/07/15 05:52:48;;;;;;;0.10;0.10;;;;;;;15.03;100.00;101965.56;10408363;28;20217;-74
2022/07/15 05:57:48;;;;;;;0.10;0.10;;;;;;;15.42;100.00;101972.25;10418097;28;20021;-74
2022/07/15 06:02:48;;;;;;;0.10;0.10;;;;;;;15.66;100.00;101983.09;10428993;28;20025;-74
2022/07/15 06:07:49;;;;;;;0.10;0.10;;;;;;;15.71;100.00;101980.78;10425919;28;20014;-74
2022/07/15 06:12:49;;;;;;;0.10;0.10;;;;;;;15.74;100.00;101990.38;10432680;28;20399;-73
2022/07/15 06:17:50;;;;;;;0.10;0.10;;;;;;;15.77;100.00;101988.19;10427046;28;20500;-74
2022/07/15 06:22:51;;;;;;;0.10;0.10;;;;;;;15.84;100.00;101991.88;10432821;28;20025;-74
2022/07/15 06:27:51;;;;;;;0.10;0.10;;;;;;;15.94;100.00;102004.31;10419545;28;20055;-73
2022/07/15 06:32:51;;;;;;;0.10;0.10;;;;;;;16.03;100.00;102003.34;10413864;28;20021;-73
2022/07/15 06:37:52;;;;;;;0.10;0.10;;;;;;;16.07;100.00;102000.13;10411029;28;20329;-74
2022/07/15 06:42:52;;;;;;;0.10;0.10;;;;;;;15.99;100.00;102007.34;10426905;28;20028;-74
2022/07/15 06:47:52;;;;;;;0.10;0.10;;;;;;;15.99;100.00;102008.19;10436471;28;20033;-74
2022/07/15 06:52:53;;;;;;;0.10;0.10;;;;;;;16.10;100.00;102000.81;10420485;28;20500;-73
2022/07/15 06:57:54;;;;;;;0.10;0.10;;;;;;;16.27;100.00;102006.03;10437155;28;20032;-74
2022/07/15 07:02:54;;;;;;;0.10;0.10;;;;;;;16.40;99.56;102010.88;10416614;28;20026;-74
2022/07/15 07:07:54;;;;;;;0.10;0.10;;;;;;;16.39;100.00;102013.75;10436857;28;20032;-74
2022/07/15 07:12:55;;;;;;;0.10;0.10;;;;;;;16.41;100.00;102014.44;10441374;28;20037;-74
2022/07/15 07:17:55;;;;;;;0.10;0.10;;;;;;;16.22;100.00;102011.06;10425333;28;20272;-74
2022/07/15 07:22:57;;;;;;;0.10;0.10;;;;;;;15.98;100.00;102009.19;10432965;28;20090;-74
2022/07/15 07:28:00;;;;;;;0.10;0.10;;;;;;;15.86;100.00;101999.78;10448990;28;20029;-74
2022/07/15 07:33:01;;;;;;;0.17;0.17;;;;;;;15.79;100.00;102007.63;10432576;28;20025;-74
2022/07/15 07:38:01;;;;;;;0.10;0.10;;;;;;;15.74;100.00;102010.00;10429112;28;20032;-74
2022/07/15 07:43:01;;;;;;;0.10;0.10;;;;;;;15.62;100.00;102014.81;10432026;28;20388;-73
2022/07/15 07:48:02;;;;;;;0.10;0.10;;;;;;;15.65;100.00;102018.16;10435962;28;20025;-74
2022/07/15 07:53:02;;;;;;;0.10;0.10;;;;;;;15.99;100.00;102013.56;10418826;28;20075;-73
2022/07/15 07:58:03;;;;;;;0.10;0.10;;;;;;;16.21;100.00;102020.13;10402949;28;20025;-74
2022/07/15 08:03:03;;;;;;;0.10;0.10;;;;;;;16.87;100.00;102020.97;10428932;28;20017;-73
2022/07/15 08:08:07;;;;;;;0.10;0.10;;;;;;;17.45;94.31;102018.91;10422956;28;20030;-73
2022/07/15 08:13:08;;;;;;;0.10;0.10;;;;;;;19.64;83.78;102021.69;10436305;28;20032;-75
2022/07/15 08:18:09;;;;;;;0.10;0.10;;;;;;;21.12;79.22;102017.38;10423741;28;20029;-74
2022/07/15 08:23:10;;;;;;;0.10;0.10;;;;;;;21.88;72.01;102018.13;10421634;28;20404;-75
2022/07/15 08:28:11;;;;;;;0.00;0.00;;;;;;;21.68;67.87;102014.53;10413516;28;20029;-75
2022/07/15 08:33:11;;;;;;;0.00;0.00;;;;;;;20.41;71.19;102009.38;10420033;28;20029;-75
2022/07/15 08:38:12;;;;;;;0.10;0.10;;;;;;;19.98;71.25;102018.34;10429609;28;20473;-75
2022/07/15 08:43:12;;;;;;;0.00;0.00;;;;;;;18.59;75.39;102024.53;10423457;28;20028;-74
2022/07/15 08:48:14;;;;;;;0.10;0.10;;;;;;;17.98;82.37;102024.56;10413067;28;20028;-75
2022/07/15 08:53:14;;;;;;;0.00;0.00;;;;;;;17.87;86.34;102018.53;10429458;28;20653;-75
2022/07/15 08:58:14;;;;;;;0.10;0.10;;;;;;;18.13;83.49;102017.34;10428757;28;20040;-76
2022/07/15 09:03:15;;;;;;;0.00;0.00;;;;;;;18.46;80.30;102022.47;10423328;28;20518;-75
2022/07/15 09:08:18;;;;;;;0.10;0.10;;;;;;;20.27;72.49;102019.25;10422407;28;20848;-75
2022/07/15 09:13:28;;;;;;;0.10;0.10;;;;;;;20.32;71.59;102012.22;10400809;28;20381;-75
2022/07/15 09:18:35;;;;;;;0.00;0.00;;;;;;;19.73;70.20;102006.22;10430815;28;20104;-75
2022/07/15 09:23:35;;;;;;;0.00;0.00;;;;;;;20.09;69.75;102017.81;10408860;28;20025;-74
2022/07/15 09:28:39;;;;;;;0.10;0.10;;;;;;;20.02;64.75;102018.81;10422424;28;20095;-75
2022/07/15 09:33:43;;;;;;;0.10;0.10;;;;;;;19.98;64.72;102018.34;10421863;28;20028;-75
2022/07/15 09:38:44;;;;;;;0.10;0.10;;;;;;;20.41;68.52;102018.31;10405142;28;20025;-75
2022/07/15 09:43:51;;;;;;;0.10;0.10;;;;;;;20.60;64.29;102027.69;10426811;28;20098;-74
2022/07/15 09:48:52;;;;;;;0.10;0.10;;;;;;;20.48;64.39;102024.66;10406761;28;20033;-74
2022/07/15 09:53:53;;;;;;;0.00;0.00;;;;;;;20.37;64.58;102027.88;10415740;28;20056;-75
2022/07/15 09:58:53;;;;;;;0.10;0.10;;;;;;;20.48;68.76;102029.22;10426951;28;20082;-75
2022/07/15 10:03:54;;;;;;;0.10;0.10;;;;;;;20.93;68.75;102021.66;10411016;28;20056;-75
2022/07/15 10:08:56;;;;;;;0.10;0.10;;;;;;;21.10;67.02;102027.59;10422983;28;20041;-75
2022/07/15 10:14:26;;;;;;;0.00;0.00;;;;;;;20.54;67.54;102033.88;10422865;28;20067;-75
2022/07/15 10:19:48;;;;;;;0.10;0.10;;;;;;;20.12;70.08;102041.78;10415636;28;20021;-75
2022/07/15 10:25:10;;;;;;;0.10;0.10;;;;;;;20.50;69.79;102027.97;10416464;28;20017;-75
2022/07/15 10:30:10;;;;;;;0.00;0.00;;;;;;;20.62;68.41;102025.59;10415007;28;20025;-75
2022/07/15 10:35:37;;;;;;;0.10;0.10;;;;;;;20.64;68.90;102023.53;10438112;28;20045;-74
2022/07/15 10:40:58;;;;;;;0.10;0.10;;;;;;;20.85;67.59;102021.81;10429713;28;20056;-75
2022/07/15 10:46:04;;;;;;;0.00;0.00;;;;;;;21.11;68.60;102021.97;10428091;28;20047;-75
2022/07/15 10:51:04;;;;;;;0.00;0.00;;;;;;;21.54;68.47;102012.81;10423496;28;20506;-74
2022/07/15 10:56:29;;;;;;;0.00;0.00;;;;;;;22.07;67.84;102021.09;10444935;28;20021;-74
2022/07/15 11:01:29;;;;;;;0.10;0.10;;;;;;;22.11;66.21;102015.03;10416011;28;20068;-74
2022/07/15 11:06:30;;;;;;;0.05;0.05;;;;;;;22.20;69.68;102007.56;10431820;28;20049;-74
2022/07/15 11:11:42;;;;;;;0.00;0.00;;;;;;;22.01;65.45;102017.31;10435140;28;20406;-74
2022/07/15 11:16:42;;;;;;;0.00;0.00;;;;;;;21.34;66.13;102016.25;10423928;28;20032;-74
2022/07/15 11:21:48;;;;;;;0.00;0.00;;;;;;;20.39;68.01;102017.69;10454266;28;20021;-74
2022/07/15 11:26:49;;;;;;;0.00;0.00;;;;;;;19.82;71.54;102021.31;10433912;28;20017;-74
2022/07/15 11:31:51;;;;;;;0.10;0.10;;;;;;;19.58;74.64;102017.88;10454157;28;20017;-75
2022/07/15 11:36:58;;;;;;;0.00;0.00;;;;;;;19.48;78.52;102024.59;10450030;28;20061;-75
2022/07/15 11:47:18;;;;;;;0.00;0.00;;;;;;;19.12;78.69;102017.28;10436027;28;20021;-75
2022/07/15 11:52:23;;;;;;;0.00;0.00;;;;;;;18.99;82.89;102023.31;10419400;28;20074;-76
2022/07/15 11:57:25;;;;;;;0.10;0.10;;;;;;;18.88;83.10;102021.94;10421909;28;20487;-75
2022/07/15 12:02:27;;;;;;;0.00;0.00;;;;;;;19.06;83.82;102009.94;10444925;28;20468;-75
2022/07/15 12:07:42;;;;;;;0.10;0.10;;;;;;;19.52;82.96;102001.56;10441803;28;20890;-75
2022/07/15 12:13:01;;;;;;;0.10;0.10;;;;;;;20.16;81.64;102001.69;10434076;28;20032;-76
2022/07/15 12:18:02;;;;;;;0.08;0.08;;;;;;;21.12;80.04;101998.41;10456631;28;20028;-75
2022/07/15 12:23:03;;;;;;;0.10;0.10;;;;;;;21.53;73.43;101998.44;10452450;28;20442;-75
2022/07/15 12:28:03;;;;;;;0.10;0.10;;;;;;;21.02;69.48;102001.50;10453491;28;20103;-75
2022/07/15 12:33:19;;;;;;;0.10;0.10;;;;;;;20.52;73.04;102004.28;10453759;28;20025;-76
2022/07/15 12:38:33;;;;;;;0.00;0.00;;;;;;;20.21;76.89;102009.19;10452955;28;20461;-75
2022/07/15 12:43:51;;;;;;;0.10;0.10;;;;;;;20.26;75.12;102010.28;10453051;28;20074;-75
2022/07/15 12:48:52;;;;;;;0.10;0.10;;;;;;;20.53;74.51;102008.66;10427332;28;20040;-75
2022/07/15 12:54:02;;;;;;;0.00;0.00;;;;;;;20.33;75.72;102016.63;10433940;28;20032;-75
2022/07/15 12:59:02;;;;;;;0.10;0.10;;;;;;;20.17;75.16;102011.47;10419603;28;20029;-75
2022/07/15 13:04:03;;;;;;;0.10;0.10;;;;;;;20.26;74.68;102004.88;10415258;28;20040;-75
2022/07/15 13:09:03;;;;;;;0.10;0.10;;;;;;;20.58;74.91;102019.75;10409232;28;20028;-75
2022/07/15 13:14:04;;;;;;;0.10;0.10;;;;;;;20.55;67.91;102020.13;10418124;28;20442;-75
2022/07/15 13:19:04;;;;;;;0.00;0.00;;;;;;;20.42;69.88;102020.00;10421728;28;20361;-75
2022/07/15 13:24:04;;;;;;;0.03;0.03;;;;;;;20.32;66.67;102031.16;10409044;28;20594;-74
2022/07/15 13:29:05;;;;;;;0.10;0.10;;;;;;;20.13;69.73;102031.81;10409180;28;20103;-74
2022/07/15 13:34:06;;;;;;;0.10;0.10;;;;;;;20.10;71.11;102032.19;10408981;28;20044;-73
2022/07/15 13:39:06;;;;;;;0.10;0.10;;;;;;;20.11;67.01;102039.28;10408466;28;20346;-73
2022/07/15 13:44:07;;;;;;;0.00;0.00;;;;;;;20.28;68.63;102035.28;10411350;28;20031;-74
2022/07/15 13:49:07;;;;;;;0.10;0.10;;;;;;;20.53;66.61;102040.31;10412150;28;20074;-74
2022/07/15 13:54:12;;;;;;;0.10;0.10;;;;;;;20.55;68.53;102040.97;10407936;28;20058;-74
2022/07/15 13:59:12;;;;;;;0.00;0.00;;;;;;;20.61;68.40;102042.88;10390892;28;20025;-74
2022/07/15 14:04:13;;;;;;;0.00;0.00;;;;;;;20.57;66.34;102028.06;10413269;28;20530;-74
2022/07/15 14:09:13;;;;;;;0.00;0.00;;;;;;;20.58;64.75;102030.56;10409218;28;20036;-74
2022/07/15 14:14:14;;;;;;;0.00;0.00;;;;;;;20.49;67.70;102033.59;10424707;28;20198;-74
2022/07/15 14:19:15;;;;;;;0.03;0.03;;;;;;;20.19;68.38;102030.19;10453260;28;20259;-73
2022/07/15 14:24:15;;;;;;;0.00;0.00;;;;;;;20.13;65.20;102035.34;10442479;28;20029;-75
2022/07/15 14:29:15;;;;;;;0.10;0.10;;;;;;;20.19;66.11;102038.31;10399779;28;20033;-74
2022/07/15 14:34:16;;;;;;;0.10;0.10;;;;;;;20.27;65.29;102032.75;10417915;28;20264;-75
2022/07/15 14:39:16;;;;;;;0.00;0.00;;;;;;;20.30;64.34;102032.38;10399453;28;20030;-74
2022/07/15 14:44:17;;;;;;;0.00;0.00;;;;;;;20.15;63.62;102035.16;10432663;28;20029;-74
2022/07/15 14:49:17;;;;;;;0.00;0.00;;;;;;;20.03;65.51;102037.53;10457660;28;20044;-75
2022/07/15 14:54:20;;;;;;;0.10;0.10;;;;;;;19.81;64.22;102039.41;10457623;28;20104;-74
2022/07/15 14:59:21;;;;;;;0.00;0.00;;;;;;;19.92;64.47;102043.44;10457472;28;20091;-75
2022/07/15 15:04:22;;;;;;;0.10;0.10;;;;;;;19.54;65.49;102042.75;10456628;28;20025;-75
2022/07/15 15:09:22;;;;;;;0.10;0.10;;;;;;;19.32;67.98;102042.72;10434403;28;20030;-74
2022/07/15 15:14:24;;;;;;;0.10;0.10;;;;;;;19.32;71.76;102045.41;10419975;28;20728;-73
2022/07/15 15:19:24;;;;;;;0.00;0.00;;;;;;;19.41;69.89;102040.75;10416822;28;20410;-73
2022/07/15 15:24:24;;;;;;;0.10;0.10;;;;;;;19.38;69.11;102028.44;10427143;28;20029;-74
2022/07/15 15:29:26;;;;;;;0.10;0.10;;;;;;;19.26;71.92;102027.25;10454572;28;20036;-75
2022/07/15 15:34:29;;;;;;;0.00;0.00;;;;;;;19.17;69.13;102036.47;10436466;28;20028;-74
2022/07/15 15:39:29;;;;;;;;;;;;;;;19.22;69.11;102031.34;10452013;28;20013;-75
2022/07/15 15:44:30;;;;;;;0.10;0.10;;;;;;;19.32;68.28;102028.38;10441770;28;20136;-73
2022/07/15 15:49:31;;;;;;;0.10;0.10;;;;;;;19.19;69.89;102010.09;10415347;28;20235;-74
2022/07/15 15:54:31;;;;;;;0.10;0.10;;;;;;;19.21;70.79;102021.56;10393732;28;20490;-73
2022/07/15 15:59:32;;;;;;;0.10;0.10;;;;;;;19.42;68.49;102018.09;10411935;28;20036;-74
2022/07/15 16:04:32;;;;;;;0.10;0.10;;;;;;;19.75;67.10;102013.13;10411367;28;20022;-74
2022/07/15 16:09:33;;;;;;;0.10;0.10;;;;;;;19.81;67.39;102001.53;10411677;28;20283;-73
2022/07/15 16:14:33;;;;;;;0.00;0.00;;;;;;;19.73;66.22;102003.53;10438618;28;20484;-75
2022/07/15 16:19:33;;;;;;;0.10;0.10;;;;;;;19.28;68.74;102006.28;10415241;28;20457;-73
2022/07/15 16:24:33;;;;;;;0.10;0.10;;;;;;;19.09;68.66;102001.47;10411208;28;20021;-74
2022/07/15 16:29:34;;;;;;;0.10;0.10;;;;;;;19.14;68.38;101994.47;10412356;28;20041;-73
2022/07/15 16:34:34;;;;;;;0.10;0.10;;;;;;;19.02;67.54;101992.41;10411994;28;20087;-73
2022/07/15 16:39:35;;;;;;;0.00;0.00;;;;;;;18.99;69.23;101997.19;10412303;28;20041;-73
2022/07/15 16:44:35;;;;;;;0.10;0.10;;;;;;;18.98;69.86;101989.25;10429775;28;20267;-74
2022/07/15 16:49:36;;;;;;;0.10;0.10;;;;;;;19.01;69.21;101986.19;10423469;28;20022;-74
2022/07/15 16:54:37;;;;;;;0.00;0.00;;;;;;;18.99;72.26;101983.69;10410673;28;20021;-74
2022/07/15 16:59:41;;;;;;;0.10;0.10;;;;;;;18.91;71.79;101985.66;10411433;28;20487;-75
2022/07/15 17:04:41;;;;;;;0.10;0.10;;;;;;;18.87;69.70;101982.44;10419492;28;20025;-74
2022/07/15 17:09:42;;;;;;;0.10;0.10;;;;;;;18.71;72.63;101983.44;10450392;28;20484;-74
2022/07/15 17:14:43;;;;;;;0.03;0.03;;;;;;;18.49;75.21;101993.28;10451268;28;20369;-75
2022/07/15 17:19:44;;;;;;;0.00;0.00;;;;;;;18.28;76.81;101979.66;10451552;28;20021;-75
2022/07/15 17:24:44;;;;;;;0.00;0.00;;;;;;;18.23;78.92;101980.19;10451236;28;20373;-75
2022/07/15 17:29:44;;;;;;;0.10;0.10;;;;;;;18.17;79.69;101980.06;10451188;28;20111;-74
2022/07/15 17:34:45;;;;;;;0.10;0.10;;;;;;;18.15;81.00;101982.09;10450622;28;20399;-75
2022/07/15 17:39:45;;;;;;;0.10;0.10;;;;;;;18.13;80.85;101979.59;10428465;28;20268;-75
2022/07/15 17:44:45;;;;;;;0.10;0.10;;;;;;;18.07;82.31;101981.16;10412454;28;20026;-75
2022/07/15 17:49:45;;;;;;;0.05;0.05;;;;;;;18.00;81.77;101971.28;10408823;28;20033;-74
2022/07/15 17:54:46;;;;;;;0.10;0.10;;;;;;;17.93;83.94;101968.47;10422806;28;20018;-74
2022/07/15 17:59:47;;;;;;;0.10;0.10;;;;;;;17.87;84.11;101964.63;10390321;28;20024;-75
2022/07/15 18:04:48;;;;;;;0.10;0.10;;;;;;;17.72;82.99;101950.22;10406354;28;20420;-74
2022/07/15 18:09:48;;;;;;;0.10;0.10;;;;;;;17.60;84.78;101951.66;10407757;28;20141;-74
2022/07/15 18:14:48;;;;;;;0.10;0.10;;;;;;;17.52;86.67;101947.16;10418573;28;20484;-74
2022/07/15 18:19:48;;;;;;;0.10;0.10;;;;;;;17.42;88.13;101942.00;10411856;28;20041;-74
2022/07/15 18:24:49;;;;;;;0.00;0.00;;;;;;;17.35;89.26;101938.31;10389615;28;20021;-74
2022/07/15 18:29:49;;;;;;;0.10;0.10;;;;;;;17.25;84.21;101942.25;10409378;28;20365;-74
2022/07/15 18:34:50;;;;;;;0.10;0.10;;;;;;;17.17;84.82;101940.44;10442866;28;20028;-75
2022/07/15 18:39:50;;;;;;;0.10;0.10;;;;;;;17.05;85.75;101931.94;10448707;28;20017;-75
2022/07/15 18:44:50;;;;;;;0.10;0.10;;;;;;;16.93;85.58;101923.41;10430841;28;20033;-73
2022/07/15 18:49:51;;;;;;;0.10;0.10;;;;;;;16.82;85.33;101920.25;10408456;28;20034;-75
2022/07/15 18:54:51;;;;;;;0.10;0.10;;;;;;;16.67;85.52;101920.94;10407552;28;20091;-74
2022/07/15 18:59:51;;;;;;;0.10;0.10;;;;;;;16.57;85.53;101908.69;10406881;28;20021;-74
2022/07/15 19:04:52;;;;;;;0.10;0.10;;;;;;;16.49;87.12;101912.22;10390895;28;20029;-75
2022/07/15 19:09:52;;;;;;;0.10;0.10;;;;;;;16.39;87.65;101908.88;10417511;28;20396;-74
2022/07/15 19:14:52;;;;;;;0.00;0.00;;;;;;;16.31;87.98;101896.28;10423334;28;20029;-74
2022/07/15 19:19:53;;;;;;;0.10;0.10;;;;;;;16.24;87.20;101892.63;10415919;28;20036;-75
2022/07/15 19:24:53;;;;;;;0.10;0.10;;;;;;;16.16;88.44;101893.47;10413454;28;20071;-74
2022/07/15 19:29:53;;;;;;;0.10;0.10;;;;;;;16.09;89.06;101889.78;10395766;28;20022;-75
2022/07/15 19:34:54;;;;;;;0.10;0.10;;;;;;;16.01;89.01;101905.91;10413901;28;20048;-75
2022/07/15 19:39:54;;;;;;;0.10;0.10;;;;;;;15.95;89.28;101910.09;10413421;28;20029;-75
2022/07/15 19:44:54;;;;;;;0.10;0.10;;;;;;;15.89;92.20;101899.19;10423950;28;20469;-74
2022/07/15 19:49:55;;;;;;;0.10;0.10;;;;;;;15.81;91.58;101905.41;10414265;28;20088;-75
2022/07/15 19:54:55;;;;;;;0.10;0.10;;;;;;;15.76;92.76;101903.19;10431330;28;20041;-74
2022/07/15 20:05:15;;;;;;;0.10;0.10;;;;;;;15.65;93.99;101895.47;10453427;28;20746;-75
2022/07/15 20:10:16;;;;;;;0.10;0.10;;;;;;;15.60;94.37;101887.06;10451715;28;20064;-74
2022/07/15 20:15:19;;;;;;;0.03;0.03;;;;;;;15.54;95.58;101898.47;10399055;28;20078;-73
2022/07/15 20:20:20;;;;;;;0.10;0.10;;;;;;;15.52;96.71;101885.19;10434360;28;20460;-76
2022/07/15 20:25:21;;;;;;;0.10;0.10;;;;;;;15.52;97.09;101881.69;10453444;28;20024;-74
2022/07/15 20:30:22;;;;;;;0.10;0.10;;;;;;;15.46;97.23;101880.50;10452785;28;20036;-74
2022/07/15 20:35:22;;;;;;;0.10;0.10;;;;;;;15.42;97.40;101872.91;10452082;28;20028;-74
2022/07/15 20:40:22;;;;;;;0.20;0.20;;;;;;;15.35;99.44;101864.69;10430267;28;20017;-73
2022/07/15 20:45:23;;;;;;;0.10;0.10;;;;;;;15.29;100.00;101857.31;10426368;28;20046;-74
2022/07/15 20:50:23;;;;;;;0.10;0.10;;;;;;;15.22;100.00;101854.44;10447742;28;20539;-74
2022/07/15 20:55:24;;;;;;;0.10;0.10;;;;;;;15.16;100.00;101855.13;10433671;28;20096;-73
2022/07/15 21:00:25;;;;;;;0.10;0.10;;;;;;;15.11;100.00;101846.72;10397843;28;20071;-73
2022/07/15 21:05:27;;;;;;;0.10;0.10;;;;;;;15.06;100.00;101836.44;10403696;28;20017;-74
2022/07/15 21:10:28;;;;;;;0.10;0.10;;;;;;;15.02;100.00;101828.91;10413580;28;20480;-73
2022/07/15 21:15:28;;;;;;;0.00;0.00;;;;;;;14.98;100.00;101822.19;10391144;28;20029;-74
2022/07/15 21:20:29;;;;;;;0.00;0.00;;;;;;;14.94;100.00;101822.50;10409593;28;20021;-73
2022/07/15 21:30:48;;;;;;;0.10;0.10;;;;;;;14.94;100.00;101824.34;10409627;28;20022;-74
2022/07/15 21:35:49;;;;;;;0.00;0.00;;;;;;;14.98;100.00;101822.19;10428018;28;20025;-73
2022/07/15 21:40:49;;;;;;;0.10;0.10;;;;;;;14.99;100.00;101813.16;10409748;28;20418;-73
2022/07/15 21:45:49;;;;;;;0.10;0.10;;;;;;;14.93;100.00;101804.75;10408323;28;20498;-74
2022/07/15 21:50:50;;;;;;;0.10;0.10;;;;;;;14.89;100.00;101808.75;10408157;28;20280;-73
2022/07/15 21:55:52;;;;;;;0.10;0.10;;;;;;;14.86;100.00;101811.75;10408152;28;20079;-75
2022/07/15 22:00:53;;;;;;;0.20;0.20;;;;;;;14.85;100.00;101806.56;10408696;28;20117;-75
2022/07/15 22:05:53;;;;;;;0.10;0.10;;;;;;;14.77;100.00;101804.69;10419631;28;20029;-75
2022/07/15 22:10:54;;;;;;;0.10;0.10;;;;;;;14.71;100.00;101799.97;10390004;28;20021;-75
2022/07/15 22:15:54;;;;;;;0.10;0.10;;;;;;;14.65;100.00;101795.25;10407492;28;20053;-75
2022/07/15 22:20:55;;;;;;;0.10;0.10;;;;;;;14.58;100.00;101791.56;10407436;28;20418;-75
2022/07/15 22:25:55;;;;;;;0.10;0.10;;;;;;;14.50;100.00;101776.25;10407130;28;20395;-75
2022/07/15 22:30:56;;;;;;;0.10;0.10;;;;;;;14.46;100.00;101783.78;10407538;28;20395;-75
2022/07/15 22:35:56;;;;;;;0.10;0.10;;;;;;;14.44;100.00;101772.38;10416567;28;20047;-75
2022/07/15 22:40:56;;;;;;;0.10;0.10;;;;;;;14.42;100.00;101768.16;10422373;28;20035;-74
2022/07/15 22:45:57;;;;;;;0.10;0.10;;;;;;;14.41;100.00;101767.34;10415280;28;20028;-75
2022/07/15 22:50:58;;;;;;;0.10;0.10;;;;;;;14.38;100.00;101767.66;10415028;28;20013;-75
2022/07/15 22:55:58;;;;;;;0.10;0.10;;;;;;;14.36;100.00;101763.44;10414695;28;20075;-75
2022/07/15 23:00:59;;;;;;;0.10;0.10;;;;;;;14.34;100.00;101760.09;10414812;28;20737;-75
2022/07/15 23:05:59;;;;;;;0.08;0.08;;;;;;;14.31;100.00;101745.19;10424455;28;20403;-75
2022/07/15 23:10:59;;;;;;;0.10;0.10;;;;;;;14.31;100.00;101738.97;10414431;28;20464;-74
2022/07/15 23:16:00;;;;;;;0.10;0.10;;;;;;;14.31;100.00;101729.13;10422875;28;20691;-75